Time;durP1;ratioP1;P1;durP2;ratioP2;P2;SDS_P1;SDS_P2;PMS_P1;PMS_P2;Temp;Humidity;BMP_temperature;BMP_pressure;BME280_temperature;BME280_humidity;BME280_pressure;Samples;Min_cycle;Max_cycle;Signal;HPM_P1;HPM_P2
2021/08/23 00:02:01;;;;;;;5.33;2.77;;;13.30;99.90;;;;;;5009671;28;20943;-59
2021/08/23 00:04:31;;;;;;;3.63;2.90;;;13.30;99.90;;;;;;4991544;28;20454;-57
2021/08/23 00:07:08;;;;;;;6.37;2.93;;;13.20;99.90;;;;;;5009318;28;20650;-59
2021/08/23 00:09:50;;;;;;;5.33;3.20;;;13.30;99.90;;;;;;5004210;28;20436;-59
2021/08/23 00:12:18;;;;;;;3.40;2.87;;;13.20;99.90;;;;;;5011224;28;20840;-58
2021/08/23 00:14:50;;;;;;;5.53;3.50;;;13.20;99.90;;;;;;5016326;28;20399;-59
2021/08/23 00:17:15;;;;;;;2.90;2.60;;;13.10;99.90;;;;;;4994638;28;20442;-58
2021/08/23 00:19:46;;;;;;;3.87;3.00;;;13.10;99.90;;;;;;5000941;28;20478;-59
2021/08/23 00:22:32;;;;;;;5.13;2.77;;;13.00;99.90;;;;;;5009157;28;20169;-59
2021/08/23 00:25:04;;;;;;;4.63;2.80;;;13.00;99.90;;;;;;5011587;28;20604;-59
2021/08/23 00:27:33;;;;;;;3.33;2.70;;;12.90;99.90;;;;;;4994959;28;20478;-59
2021/08/23 00:29:59;;;;;;;3.33;2.90;;;12.90;99.90;;;;;;5003110;28;20936;-59
2021/08/23 00:32:27;;;;;;;2.50;2.30;;;12.80;99.90;;;;;;5012203;28;20451;-58
2021/08/23 00:35:01;;;;;;;5.70;3.00;;;12.80;99.90;;;;;;5009522;28;20177;-60
2021/08/23 00:37:27;;;;;;;3.10;2.80;;;12.80;99.90;;;;;;5012903;28;20396;-59
2021/08/23 00:40:04;;;;;;;4.90;2.90;;;12.70;99.90;;;;;;5012434;28;20410;-59
2021/08/23 00:42:35;;;;;;;3.83;3.00;;;12.70;99.90;;;;;;5012174;28;20176;-58
2021/08/23 00:45:12;;;;;;;3.83;2.93;;;12.70;99.90;;;;;;4991337;28;20525;-60
2021/08/23 00:47:42;;;;;;;6.03;3.40;;;12.60;99.90;;;;;;4992859;28;20471;-59
2021/08/23 00:50:14;;;;;;;11.57;2.97;;;12.60;99.90;;;;;;4993135;28;20392;-59
2021/08/23 00:52:40;;;;;;;6.70;2.80;;;12.60;99.90;;;;;;4992832;28;20459;-59
2021/08/23 00:55:09;;;;;;;2.90;2.70;;;12.60;99.90;;;;;;5011617;28;20801;-59
2021/08/23 00:57:45;;;;;;;5.33;2.90;;;12.60;99.90;;;;;;5012312;28;20481;-60
2021/08/23 01:00:14;;;;;;;4.47;2.83;;;12.60;99.90;;;;;;5012042;28;20395;-60
2021/08/23 01:03:05;;;;;;;3.87;2.90;;;12.50;99.90;;;;;;5008875;28;20440;-59
2021/08/23 01:05:35;;;;;;;4.63;2.53;;;12.40;99.90;;;;;;4999208;28;20446;-59
2021/08/23 01:08:06;;;;;;;3.80;2.70;;;12.50;99.90;;;;;;4994447;28;21014;-59
2021/08/23 01:10:37;;;;;;;4.03;2.93;;;12.40;99.90;;;;;;4990764;28;20815;-60
2021/08/23 01:13:08;;;;;;;5.13;3.03;;;12.50;99.90;;;;;;4992802;28;20852;-59
2021/08/23 01:15:42;;;;;;;3.70;2.77;;;12.50;99.90;;;;;;5002381;28;20407;-62
2021/08/23 01:18:14;;;;;;;5.23;3.50;;;12.50;99.90;;;;;;5010959;28;20463;-59
2021/08/23 01:20:48;;;;;;;6.90;3.50;;;12.50;99.90;;;;;;4992945;28;20408;-59
2021/08/23 01:23:14;;;;;;;6.60;3.57;;;12.50;99.90;;;;;;4992498;28;20963;-57
2021/08/23 01:25:45;;;;;;;4.70;3.13;;;12.60;99.90;;;;;;5010329;28;20443;-59
2021/08/23 01:29:04;;;;;;;3.43;2.90;;;12.50;99.90;;;;;;4992223;28;20530;-59
2021/08/23 01:31:44;;;;;;;8.23;3.13;;;12.60;99.90;;;;;;5010076;28;20967;-58
2021/08/23 01:34:18;;;;;;;6.37;2.60;;;12.50;99.90;;;;;;4991647;28;20547;-59
2021/08/23 01:37:06;;;;;;;2.77;2.40;;;12.40;99.90;;;;;;5012832;28;20811;-59
2021/08/23 01:39:39;;;;;;;5.27;2.60;;;12.40;99.90;;;;;;5009603;28;20959;-59
2021/08/23 01:42:10;;;;;;;4.60;3.00;;;12.20;99.90;;;;;;5008080;28;20431;-57
2021/08/23 01:47:51;;;;;;;3.60;2.40;;;12.10;99.90;;;;;;5004109;28;20788;-58
2021/08/23 01:50:25;;;;;;;3.20;2.90;;;12.10;99.90;;;;;;4992133;28;20443;-59
2021/08/23 01:52:51;;;;;;;3.33;2.73;;;12.00;99.90;;;;;;4984947;28;20455;-59
2021/08/23 01:55:17;;;;;;;5.90;3.10;;;12.00;99.90;;;;;;4991305;28;20508;-58
2021/08/23 01:57:45;;;;;;;3.73;2.80;;;12.00;99.90;;;;;;4993577;28;20655;-59
2021/08/23 02:00:14;;;;;;;6.90;3.10;;;11.90;99.90;;;;;;4998491;28;20177;-58
2021/08/23 02:02:42;;;;;;;4.37;3.40;;;11.90;99.90;;;;;;4991441;28;20401;-58
2021/08/23 02:05:08;;;;;;;4.20;3.33;;;11.90;99.90;;;;;;5005232;28;20850;-58
2021/08/23 02:07:37;;;;;;;3.93;2.97;;;11.80;99.90;;;;;;5010887;28;20433;-59
2021/08/23 02:10:23;;;;;;;4.33;2.70;;;11.80;99.90;;;;;;4995846;28;20428;-59
2021/08/23 02:12:51;;;;;;;4.20;2.60;;;11.80;99.90;;;;;;4990271;28;20543;-58
2021/08/23 02:15:20;;;;;;;2.90;2.57;;;11.90;99.90;;;;;;4991146;28;20925;-59
2021/08/23 02:17:57;;;;;;;4.90;3.20;;;11.90;99.90;;;;;;4995325;28;20815;-59
2021/08/23 02:20:25;;;;;;;5.50;2.90;;;11.90;99.90;;;;;;5010976;28;20791;-59
2021/08/23 02:22:54;;;;;;;3.63;3.23;;;11.90;99.90;;;;;;5010694;28;20955;-58
2021/08/23 02:25:31;;;;;;;3.57;3.27;;;11.80;99.90;;;;;;5011012;28;20493;-57
2021/08/23 02:27:57;;;;;;;5.33;3.97;;;11.80;99.90;;;;;;4999478;28;20444;-59
2021/08/23 02:30:23;;;;;;;4.90;3.90;;;11.80;99.90;;;;;;5000042;28;20434;-59
2021/08/23 02:32:51;;;;;;;6.43;3.67;;;11.70;99.90;;;;;;5012532;28;20193;-58
2021/08/23 02:35:24;;;;;;;3.80;3.20;;;11.70;99.90;;;;;;5003687;28;20180;-59
2021/08/23 02:37:55;;;;;;;5.50;3.37;;;11.70;99.90;;;;;;5009881;28;20505;-58
2021/08/23 02:40:34;;;;;;;7.53;3.03;;;11.60;99.90;;;;;;5011704;28;20806;-60
2021/08/23 02:43:05;;;;;;;4.17;3.57;;;11.50;99.90;;;;;;4999736;28;20436;-59
2021/08/23 02:45:40;;;;;;;6.77;3.30;;;11.50;99.90;;;;;;5008714;28;20969;-59
2021/08/23 02:48:16;;;;;;;5.40;3.33;;;11.50;99.90;;;;;;5010033;28;20426;-59
2021/08/23 02:50:45;;;;;;;7.23;3.70;;;11.40;99.90;;;;;;5008971;28;20411;-59
2021/08/23 02:53:15;;;;;;;6.20;3.30;;;11.40;99.90;;;;;;4999301;28;20452;-58
2021/08/23 02:55:50;;;;;;;11.27;3.90;;;11.40;99.90;;;;;;5009316;28;20420;-59
2021/08/23 02:58:16;;;;;;;5.00;3.67;;;11.50;99.90;;;;;;4992424;28;20474;-58
2021/08/23 03:00:47;;;;;;;5.10;3.67;;;11.50;99.90;;;;;;5007540;28;20415;-59
2021/08/23 03:03:13;;;;;;;14.57;5.90;;;11.60;99.90;;;;;;4972964;28;20409;-59
2021/08/23 03:05:44;;;;;;;6.73;4.80;;;11.60;99.90;;;;;;4992686;28;21078;-59
2021/08/23 03:08:27;;;;;;;5.90;4.23;;;11.60;99.90;;;;;;4991626;28;20200;-59
2021/08/23 03:11:04;;;;;;;10.43;4.07;;;11.70;99.90;;;;;;4988081;28;21039;-59
2021/08/23 03:13:35;;;;;;;12.53;5.77;;;11.70;99.90;;;;;;4974513;28;20979;-57
2021/08/23 03:16:13;;;;;;;24.53;6.57;;;11.70;99.90;;;;;;5010257;28;20431;-59
2021/08/23 03:18:41;;;;;;;12.93;6.07;;;11.70;99.90;;;;;;5009926;28;20446;-58
2021/08/23 03:21:13;;;;;;;10.87;6.23;;;11.70;99.90;;;;;;4990811;28;20488;-59
2021/08/23 03:23:41;;;;;;;10.30;6.10;;;11.70;99.90;;;;;;4992699;28;20408;-58
2021/08/23 03:26:10;;;;;;;8.00;4.77;;;11.70;99.90;;;;;;5009224;28;20483;-58
2021/08/23 03:28:38;;;;;;;11.20;4.87;;;11.70;99.90;;;;;;4997385;28;20983;-59
2021/08/23 03:31:05;;;;;;;12.83;5.20;;;11.70;99.90;;;;;;5006904;28;20423;-58
2021/08/23 03:33:40;;;;;;;17.97;5.37;;;11.80;99.90;;;;;;5009533;28;20443;-59
2021/08/23 03:36:19;;;;;;;13.93;4.53;;;11.80;99.90;;;;;;5007973;28;20387;-59
2021/08/23 03:38:47;;;;;;;6.37;4.23;;;11.80;99.90;;;;;;4989670;28;20436;-59
2021/08/23 03:41:14;;;;;;;19.13;4.70;;;11.70;99.90;;;;;;4994320;28;20827;-59
2021/08/23 03:43:39;;;;;;;16.03;4.33;;;11.70;99.90;;;;;;5011332;28;20434;-59
2021/08/23 03:46:05;;;;;;;23.47;5.60;;;11.70;99.90;;;;;;4981544;28;20937;-61
2021/08/23 03:48:31;;;;;;;6.63;4.63;;;11.60;99.90;;;;;;4997804;28;20779;-59
2021/08/23 03:50:56;;;;;;;13.73;4.70;;;11.60;99.90;;;;;;5009492;28;20626;-59
2021/08/23 03:53:22;;;;;;;6.83;4.50;;;11.60;99.90;;;;;;5009592;28;20224;-59
2021/08/23 03:55:48;;;;;;;5.90;4.67;;;11.60;99.90;;;;;;5003208;28;20176;-59
2021/08/23 03:58:13;;;;;;;9.23;5.53;;;11.60;99.90;;;;;;5008920;28;20209;-59
2021/08/23 04:00:39;;;;;;;9.47;5.83;;;11.60;99.90;;;;;;5009544;28;20171;-58
2021/08/23 04:03:04;;;;;;;6.50;4.93;;;11.60;99.90;;;;;;5012339;28;20267;-59
2021/08/23 04:05:30;;;;;;;9.53;5.70;;;11.70;99.90;;;;;;4993394;28;20698;-58
2021/08/23 04:07:55;;;;;;;8.03;5.20;;;11.60;99.90;;;;;;5012989;28;20188;-59
2021/08/23 04:10:21;;;;;;;6.90;4.40;;;11.70;99.90;;;;;;5013499;28;20414;-59
2021/08/23 04:12:47;;;;;;;6.10;4.23;;;11.60;99.90;;;;;;5005892;28;20208;-60
2021/08/23 04:15:12;;;;;;;6.50;4.80;;;11.60;99.90;;;;;;4993833;28;20231;-59
2021/08/23 04:17:38;;;;;;;7.43;4.70;;;11.60;99.90;;;;;;4977263;28;20255;-57
2021/08/23 04:20:05;;;;;;;7.77;4.17;;;11.60;99.90;;;;;;4995286;28;20178;-59
2021/08/23 04:22:31;;;;;;;10.37;5.43;;;11.60;99.90;;;;;;5004503;28;20685;-59
2021/08/23 04:24:57;;;;;;;10.53;6.73;;;11.70;99.90;;;;;;5011414;28;20407;-59
2021/08/23 04:27:22;;;;;;;13.27;7.60;;;11.70;99.90;;;;;;5013067;28;20492;-59
2021/08/23 04:29:48;;;;;;;17.30;8.40;;;11.70;99.90;;;;;;4994956;28;20176;-58
2021/08/23 04:32:14;;;;;;;31.60;8.00;;;11.70;99.90;;;;;;4991492;28;20535;-59
2021/08/23 04:34:39;;;;;;;9.87;7.43;;;11.70;99.90;;;;;;4978330;28;20673;-59
2021/08/23 04:37:05;;;;;;;14.93;8.97;;;11.70;99.90;;;;;;5012792;28;20161;-58
2021/08/23 04:39:32;;;;;;;22.47;9.10;;;11.70;99.90;;;;;;5007385;28;20427;-59
2021/08/23 04:41:58;;;;;;;14.53;8.47;;;11.80;99.90;;;;;;4995170;28;20173;-59
2021/08/23 04:44:24;;;;;;;15.20;8.33;;;11.70;99.90;;;;;;5012690;28;20415;-59
2021/08/23 04:46:50;;;;;;;14.17;8.40;;;11.80;99.90;;;;;;4996897;28;20461;-59
2021/08/23 04:49:18;;;;;;;14.37;8.23;;;11.80;99.90;;;;;;4982886;28;20263;-57
2021/08/23 04:51:43;;;;;;;11.30;6.80;;;11.80;99.90;;;;;;4995073;28;20455;-58
2021/08/23 04:54:09;;;;;;;14.40;7.30;;;11.80;99.90;;;;;;4994167;28;20451;-57
2021/08/23 04:56:35;;;;;;;24.87;7.13;;;11.80;99.90;;;;;;5010743;28;20235;-60
2021/08/23 04:59:01;;;;;;;16.77;8.60;;;11.80;99.90;;;;;;4999949;28;20262;-60
2021/08/23 05:01:27;;;;;;;16.90;8.20;;;11.80;99.90;;;;;;5011971;28;20403;-59
2021/08/23 05:03:52;;;;;;;15.33;7.20;;;11.80;99.90;;;;;;4995334;28;20587;-58
2021/08/23 05:06:18;;;;;;;15.00;8.10;;;11.80;99.90;;;;;;5009120;28;20212;-59
2021/08/23 05:08:44;;;;;;;14.20;7.77;;;11.80;99.90;;;;;;4993719;28;20287;-57
2021/08/23 05:11:10;;;;;;;17.70;9.73;;;11.80;99.90;;;;;;5012196;28;20302;-59
2021/08/23 05:13:36;;;;;;;13.10;8.63;;;11.90;99.90;;;;;;5011376;28;20197;-58
2021/08/23 05:16:02;;;;;;;11.13;7.87;;;11.90;99.90;;;;;;4989736;28;20438;-59
2021/08/23 05:18:28;;;;;;;14.53;8.33;;;11.90;99.90;;;;;;4999136;28;20751;-59
2021/08/23 05:20:54;;;;;;;12.93;8.37;;;11.90;99.90;;;;;;5011875;28;20396;-59
2021/08/23 05:23:20;;;;;;;11.47;7.30;;;12.00;99.90;;;;;;5012331;28;20465;-60
2021/08/23 05:25:46;;;;;;;17.70;9.43;;;12.00;99.90;;;;;;5002306;28;20192;-59
2021/08/23 05:28:11;;;;;;;15.03;9.27;;;12.10;99.90;;;;;;4988078;28;20239;-58
2021/08/23 05:30:37;;;;;;;18.23;8.33;;;12.10;99.90;;;;;;5007225;28;20271;-59
2021/08/23 05:33:03;;;;;;;14.30;8.33;;;12.20;99.90;;;;;;5010572;28;20196;-59
2021/08/23 05:35:28;;;;;;;17.90;8.33;;;12.20;99.90;;;;;;5011812;28;20172;-59
2021/08/23 05:37:54;;;;;;;13.30;8.77;;;12.20;99.90;;;;;;4997118;28;20193;-58
2021/08/23 05:40:23;;;;;;;15.90;7.07;;;12.30;99.90;;;;;;4992433;28;20189;-59
2021/08/23 05:42:52;;;;;;;12.33;7.50;;;12.30;99.90;;;;;;5005225;28;20189;-58
2021/08/23 05:45:18;;;;;;;13.90;8.20;;;12.30;99.90;;;;;;5001305;28;20800;-59
2021/08/23 05:47:44;;;;;;;16.30;8.57;;;12.30;99.90;;;;;;5001892;28;20447;-59
2021/08/23 05:50:09;;;;;;;15.93;9.10;;;12.40;99.90;;;;;;5011080;28;20418;-58
2021/08/23 05:52:35;;;;;;;14.10;8.53;;;12.40;99.90;;;;;;4993203;28;20335;-60
2021/08/23 05:55:01;;;;;;;12.30;7.40;;;12.40;99.90;;;;;;4999489;28;20185;-59
2021/08/23 05:57:27;;;;;;;14.80;7.60;;;12.50;99.90;;;;;;5009265;28;20185;-60
2021/08/23 05:59:54;;;;;;;12.00;6.67;;;12.50;99.90;;;;;;5011127;28;20178;-58
2021/08/23 06:02:20;;;;;;;11.27;8.27;;;12.50;99.90;;;;;;5012676;28;20399;-59
2021/08/23 06:04:45;;;;;;;13.43;7.60;;;12.60;99.90;;;;;;5007063;28;20814;-59
2021/08/23 06:07:14;;;;;;;10.70;7.33;;;12.70;99.90;;;;;;4992716;28;20691;-59
2021/08/23 06:09:40;;;;;;;10.30;7.27;;;12.70;99.90;;;;;;5009832;28;20276;-59
2021/08/23 06:12:06;;;;;;;9.30;5.87;;;12.80;99.90;;;;;;5008858;28;20416;-57
2021/08/23 06:14:32;;;;;;;7.50;5.03;;;12.90;99.90;;;;;;4991465;28;20456;-60
2021/08/23 06:16:58;;;;;;;9.00;4.27;;;12.90;99.90;;;;;;4991294;28;20843;-58
2021/08/23 06:19:24;;;;;;;5.37;4.70;;;12.90;99.90;;;;;;5010903;28;20435;-59
2021/08/23 06:21:49;;;;;;;5.60;4.00;;;13.00;99.90;;;;;;5008950;28;20188;-58
2021/08/23 06:24:15;;;;;;;4.37;3.13;;;13.10;99.90;;;;;;4990938;28;20259;-59
2021/08/23 06:26:41;;;;;;;5.10;4.00;;;13.20;99.90;;;;;;4990151;28;20176;-58
2021/08/23 06:29:08;;;;;;;5.47;3.53;;;13.20;99.90;;;;;;5007142;28;20594;-59
2021/08/23 06:31:34;;;;;;;5.43;4.37;;;13.20;99.90;;;;;;5008398;28;20187;-59
2021/08/23 06:34:00;;;;;;;4.50;3.40;;;13.30;99.90;;;;;;5010548;28;20451;-59
2021/08/23 06:36:25;;;;;;;8.10;4.40;;;13.30;99.90;;;;;;4992518;28;20172;-60
2021/08/23 06:38:51;;;;;;;6.57;4.50;;;13.30;99.90;;;;;;5008042;28;20209;-59
2021/08/23 06:41:18;;;;;;;6.50;4.03;;;13.30;99.90;;;;;;5011140;28;20548;-58
2021/08/23 06:43:44;;;;;;;5.40;3.80;;;13.20;99.90;;;;;;5011328;28;20186;-59
2021/08/23 06:46:10;;;;;;;7.00;4.67;;;13.30;99.90;;;;;;5010256;28;20753;-59
2021/08/23 06:48:35;;;;;;;9.20;4.73;;;13.30;99.90;;;;;;5002149;28;20200;-60
2021/08/23 06:51:01;;;;;;;6.43;4.37;;;13.30;99.90;;;;;;4992669;28;20173;-58
2021/08/23 06:53:27;;;;;;;6.07;4.80;;;13.30;99.90;;;;;;4992972;28;20287;-59
2021/08/23 06:55:53;;;;;;;6.17;3.70;;;13.40;99.90;;;;;;5010358;28;20173;-59
2021/08/23 06:58:19;;;;;;;6.40;4.03;;;13.50;99.90;;;;;;4990965;28;20209;-59
2021/08/23 07:00:44;;;;;;;6.73;4.47;;;13.60;99.90;;;;;;4982218;28;21022;-59
2021/08/23 07:03:10;;;;;;;6.17;4.10;;;13.70;99.90;;;;;;4989416;28;20188;-59
2021/08/23 07:05:36;;;;;;;7.43;4.50;;;13.80;99.90;;;;;;4992811;28;20172;-58
2021/08/23 07:08:02;;;;;;;6.47;4.43;;;13.90;99.90;;;;;;5009999;28;20202;-59
2021/08/23 07:10:28;;;;;;;6.80;4.00;;;13.90;99.90;;;;;;5005574;28;20518;-58
2021/08/23 07:12:53;;;;;;;5.90;3.93;;;13.90;99.90;;;;;;5009824;28;20987;-59
2021/08/23 07:15:19;;;;;;;7.70;4.40;;;13.90;99.90;;;;;;5010604;28;20177;-58
2021/08/23 07:17:45;;;;;;;4.80;3.80;;;13.90;99.90;;;;;;4991387;28;20192;-60
2021/08/23 07:20:11;;;;;;;6.27;4.87;;;13.90;99.90;;;;;;4990810;28;20179;-58
2021/08/23 07:22:37;;;;;;;5.57;4.13;;;14.00;99.90;;;;;;5008973;28;20177;-60
2021/08/23 07:25:04;;;;;;;7.73;4.27;;;14.10;99.90;;;;;;5007798;28;20450;-58
2021/08/23 07:27:32;;;;;;;8.00;4.23;;;14.10;99.90;;;;;;5007117;28;20849;-59
2021/08/23 07:29:57;;;;;;;5.20;3.90;;;14.20;99.90;;;;;;5009020;28;20428;-58
2021/08/23 07:32:23;;;;;;;7.87;4.07;;;14.30;99.90;;;;;;5009764;28;20488;-59
2021/08/23 07:34:49;;;;;;;8.57;4.50;;;14.40;99.90;;;;;;4987637;28;20260;-58
2021/08/23 07:37:15;;;;;;;5.90;4.50;;;14.50;99.90;;;;;;5015890;28;20225;-59
2021/08/23 07:39:42;;;;;;;5.63;4.50;;;14.60;99.90;;;;;;5020411;28;20218;-58
2021/08/23 07:42:08;;;;;;;8.93;4.40;;;14.70;99.90;;;;;;5015921;28;20169;-59
2021/08/23 07:44:33;;;;;;;6.50;4.30;;;14.80;99.90;;;;;;5001011;28;20455;-59
2021/08/23 07:46:59;;;;;;;6.50;3.60;;;14.80;99.90;;;;;;4999533;28;20173;-59
2021/08/23 07:49:25;;;;;;;10.13;3.70;;;14.90;99.90;;;;;;4988342;28;20262;-59
2021/08/23 07:51:50;;;;;;;3.83;3.43;;;14.90;99.90;;;;;;4988760;28;20201;-60
2021/08/23 07:54:18;;;;;;;9.87;3.67;;;15.00;99.90;;;;;;4996986;28;20207;-58
2021/08/23 07:56:44;;;;;;;7.60;4.10;;;15.00;99.90;;;;;;5001921;28;20176;-59
2021/08/23 07:59:09;;;;;;;5.53;4.17;;;15.10;99.90;;;;;;4989307;28;20519;-59
2021/08/23 08:01:35;;;;;;;5.70;4.20;;;15.20;99.90;;;;;;4990448;28;20882;-60
2021/08/23 08:04:01;;;;;;;5.33;3.63;;;15.30;99.90;;;;;;4996199;28;20518;-59
2021/08/23 08:06:27;;;;;;;9.03;4.80;;;15.40;99.90;;;;;;5001229;28;20484;-59
2021/08/23 08:08:52;;;;;;;5.73;4.47;;;15.40;99.90;;;;;;5008626;28;20196;-59
2021/08/23 08:11:19;;;;;;;8.83;4.50;;;15.50;99.90;;;;;;5009350;28;20268;-58
2021/08/23 08:13:45;;;;;;;12.23;5.43;;;15.60;99.90;;;;;;5009724;28;20204;-60
2021/08/23 08:16:11;;;;;;;9.60;3.97;;;15.60;99.90;;;;;;4990158;28;20500;-59
2021/08/23 08:18:37;;;;;;;6.53;4.67;;;15.60;99.90;;;;;;4989655;28;20243;-59
2021/08/23 08:21:02;;;;;;;6.23;4.50;;;15.60;99.90;;;;;;5008295;28;20667;-59
2021/08/23 08:23:28;;;;;;;7.27;4.70;;;15.70;99.90;;;;;;5010927;28;20199;-60
2021/08/23 08:25:53;;;;;;;7.70;4.60;;;15.80;99.90;;;;;;4972723;28;20177;-59
2021/08/23 08:28:19;;;;;;;11.40;4.70;;;16.00;99.90;;;;;;5007471;28;20204;-59
2021/08/23 08:30:45;;;;;;;5.60;3.40;;;16.20;99.90;;;;;;4991674;28;20437;-59
2021/08/23 08:33:10;;;;;;;6.53;3.80;;;16.40;99.90;;;;;;4996401;28;20666;-60
2021/08/23 08:35:36;;;;;;;7.77;3.33;;;16.60;99.90;;;;;;5007749;28;20227;-59
2021/08/23 08:38:02;;;;;;;6.23;3.50;;;16.80;99.90;;;;;;5008642;28;20530;-58
2021/08/23 08:40:28;;;;;;;4.30;2.90;;;17.10;99.90;;;;;;4991187;28;20236;-59
2021/08/23 08:42:54;;;;;;;3.37;3.07;;;17.20;99.90;;;;;;4989822;28;20177;-59
2021/08/23 08:45:20;;;;;;;5.30;3.10;;;17.30;97.30;;;;;;5006473;28;20423;-59
2021/08/23 08:47:46;;;;;;;2.83;2.53;;;17.30;97.40;;;;;;5014636;28;20460;-58
2021/08/23 08:50:15;;;;;;;6.57;2.77;;;17.30;96.90;;;;;;5016983;28;20172;-59
2021/08/23 08:52:43;;;;;;;4.00;2.67;;;17.20;95.20;;;;;;5013834;28;20245;-60
2021/08/23 08:55:09;;;;;;;4.50;2.43;;;17.20;95.10;;;;;;4996954;28;20971;-59
2021/08/23 08:57:36;;;;;;;3.20;2.90;;;17.10;93.60;;;;;;4998939;28;20504;-59
2021/08/23 09:00:03;;;;;;;2.83;2.07;;;17.00;94.50;;;;;;4978925;28;20528;-59
2021/08/23 09:02:29;;;;;;;2.87;1.83;;;17.00;95.50;;;;;;5003447;28;20432;-59
2021/08/23 09:04:55;;;;;;;5.03;2.33;;;17.00;95.60;;;;;;4998744;28;20421;-59
2021/08/23 09:07:21;;;;;;;12.80;2.87;;;17.00;95.20;;;;;;5012098;28;20550;-59
2021/08/23 09:09:46;;;;;;;2.77;2.10;;;17.00;94.20;;;;;;5012005;28;20676;-58
2021/08/23 09:12:14;;;;;;;3.83;2.60;;;17.10;93.70;;;;;;4998580;28;20243;-60
2021/08/23 09:14:54;;;;;;;3.70;2.23;;;17.30;94.90;;;;;;4992910;28;20669;-60
2021/08/23 09:17:24;;;;;;;3.30;1.83;;;17.50;94.30;;;;;;4995062;28;20427;-59
2021/08/23 09:20:16;;;;;;;3.00;2.03;;;17.80;92.80;;;;;;4993483;28;20431;-59
2021/08/23 09:22:42;;;;;;;4.17;2.03;;;18.00;90.00;;;;;;5007778;28;20438;-59
2021/08/23 09:25:10;;;;;;;4.20;2.07;;;18.10;86.20;;;;;;5011529;28;20816;-58
2021/08/23 09:27:36;;;;;;;2.13;1.80;;;18.20;83.20;;;;;;5001424;28;20188;-59
2021/08/23 09:30:04;;;;;;;2.77;2.10;;;18.30;81.70;;;;;;5010463;28;20423;-59
2021/08/23 09:32:45;;;;;;;11.50;3.60;;;18.30;81.80;;;;;;5013891;28;20415;-60
2021/08/23 09:35:10;;;;;;;3.17;2.00;;;18.40;81.00;;;;;;5006511;28;20424;-59
2021/08/23 09:37:36;;;;;;;10.90;3.77;;;18.20;75.60;;;;;;4995846;28;20430;-59
2021/08/23 09:40:12;;;;;;;4.73;2.80;;;18.10;78.70;;;;;;5011133;28;20223;-58
2021/08/23 09:42:38;;;;;;;5.77;2.47;;;18.10;78.20;;;;;;5008494;28;20262;-59
2021/08/23 09:45:18;;;;;;;6.40;2.13;;;18.00;76.50;;;;;;5006854;28;20463;-59
2021/08/23 09:47:44;;;;;;;4.57;2.57;;;18.00;78.30;;;;;;5012340;28;20188;-60
2021/08/23 09:50:15;;;;;;;5.03;2.60;;;18.10;83.30;;;;;;5009891;28;20426;-59
2021/08/23 09:52:41;;;;;;;5.73;2.67;;;18.10;83.00;;;;;;4993230;28;20202;-59
2021/08/23 09:55:12;;;;;;;6.00;2.93;;;18.20;81.50;;;;;;5010847;28;20879;-59
2021/08/23 09:57:41;;;;;;;4.10;2.53;;;18.20;78.80;;;;;;5010459;28;20566;-59
2021/08/23 10:00:12;;;;;;;4.40;2.47;;;18.20;75.90;;;;;;5004757;28;20431;-59
2021/08/23 10:02:44;;;;;;;2.80;2.43;;;18.20;76.70;;;;;;4983407;28;20438;-59
2021/08/23 10:05:16;;;;;;;4.33;2.43;;;18.20;75.10;;;;;;5005187;28;20407;-59
2021/08/23 10:07:43;;;;;;;3.53;2.63;;;18.20;75.70;;;;;;5004997;28;20527;-59
2021/08/23 10:10:10;;;;;;;3.60;2.33;;;18.30;78.00;;;;;;5005408;28;21065;-59
2021/08/23 10:12:36;;;;;;;2.47;1.87;;;18.30;78.00;;;;;;5009941;28;20779;-59
2021/08/23 10:15:02;;;;;;;4.87;2.40;;;18.30;74.90;;;;;;5010722;28;20404;-59
2021/08/23 10:17:36;;;;;;;2.67;2.30;;;18.30;74.50;;;;;;5003962;28;20727;-59
2021/08/23 10:20:03;;;;;;;2.90;1.70;;;18.40;75.60;;;;;;5005091;28;20820;-59
2021/08/23 10:22:31;;;;;;;2.73;1.80;;;18.40;74.70;;;;;;5012303;28;20999;-59
2021/08/23 10:24:57;;;;;;;2.13;1.70;;;18.50;73.90;;;;;;5009139;28;20693;-59
2021/08/23 10:27:24;;;;;;;3.23;2.33;;;18.50;73.30;;;;;;4995232;28;20497;-59
2021/08/23 10:29:51;;;;;;;1.87;1.77;;;18.60;72.20;;;;;;4992047;28;20423;-59
2021/08/23 10:32:16;;;;;;;4.67;1.90;;;18.60;72.30;;;;;;5010259;28;20433;-59
2021/08/23 10:34:43;;;;;;;2.97;2.00;;;18.60;70.60;;;;;;5008320;28;20824;-57
2021/08/23 10:37:21;;;;;;;4.10;1.97;;;18.60;72.60;;;;;;5009224;28;20179;-59
2021/08/23 10:40:01;;;;;;;3.30;1.93;;;18.60;70.80;;;;;;4995934;28;20915;-59
2021/08/23 10:42:37;;;;;;;2.53;2.00;;;18.60;71.60;;;;;;5010233;28;20470;-59
2021/08/23 10:45:11;;;;;;;3.07;2.07;;;18.50;69.70;;;;;;5001341;28;20436;-60
2021/08/23 10:47:37;;;;;;;5.90;2.33;;;18.40;71.10;;;;;;4984334;28;20438;-59
2021/08/23 10:50:05;;;;;;;3.43;1.73;;;18.30;72.00;;;;;;5012340;28;20399;-59
2021/08/23 10:52:35;;;;;;;1.97;1.80;;;18.30;75.60;;;;;;4989729;28;20514;-59
2021/08/23 10:55:02;;;;;;;2.70;2.00;;;18.40;73.20;;;;;;4987284;28;21067;-59
2021/08/23 10:57:27;;;;;;;4.67;1.90;;;18.50;71.70;;;;;;4990076;28;20574;-59
2021/08/23 11:00:09;;;;;;;2.07;1.87;;;18.60;68.60;;;;;;4990327;28;20404;-60
2021/08/23 11:02:36;;;;;;;3.30;1.73;;;18.70;68.00;;;;;;4988448;28;20177;-57
2021/08/23 11:05:13;;;;;;;2.87;2.03;;;18.90;70.60;;;;;;4989414;28;20400;-59
2021/08/23 11:07:41;;;;;;;4.30;2.20;;;19.20;73.50;;;;;;4990091;28;20474;-60
2021/08/23 11:10:11;;;;;;;3.40;2.00;;;19.70;74.20;;;;;;4996270;28;20451;-59
2021/08/23 11:12:46;;;;;;;2.60;2.10;;;20.20;75.50;;;;;;5008873;28;20403;-60
2021/08/23 11:15:28;;;;;;;2.57;1.70;;;20.60;69.10;;;;;;5002227;28;20848;-59
2021/08/23 11:17:55;;;;;;;2.37;1.80;;;20.80;65.10;;;;;;4994388;28;20906;-61
2021/08/23 11:20:32;;;;;;;5.00;2.00;;;20.90;64.00;;;;;;4989967;28;20408;-59
2021/08/23 11:23:03;;;;;;;4.37;2.10;;;21.20;65.90;;;;;;4988861;28;20424;-59
2021/08/23 11:25:35;;;;;;;4.23;1.60;;;21.60;64.90;;;;;;5006635;28;20407;-59
2021/08/23 11:28:04;;;;;;;2.43;1.70;;;21.90;59.50;;;;;;5003322;28;20819;-57
2021/08/23 11:30:38;;;;;;;2.87;1.60;;;22.10;58.00;;;;;;5011652;28;20423;-59
2021/08/23 11:33:05;;;;;;;5.03;1.87;;;22.00;57.30;;;;;;5015676;28;20537;-59
2021/08/23 11:35:31;;;;;;;2.13;1.80;;;21.70;57.50;;;;;;5008021;28;20487;-59
2021/08/23 11:38:04;;;;;;;2.90;1.90;;;21.40;58.50;;;;;;4988758;28;20514;-59
2021/08/23 11:40:32;;;;;;;2.10;1.83;;;21.10;59.90;;;;;;4994596;28;20441;-59
2021/08/23 11:43:00;;;;;;;4.03;2.30;;;20.70;59.00;;;;;;4989557;28;20401;-59
2021/08/23 11:45:32;;;;;;;3.03;1.70;;;20.30;58.90;;;;;;5006817;28;20765;-59
2021/08/23 11:47:59;;;;;;;2.20;1.77;;;20.00;59.50;;;;;;5007046;28;20470;-58
2021/08/23 11:50:24;;;;;;;5.00;2.10;;;19.70;60.60;;;;;;5000621;28;20808;-59
2021/08/23 11:52:53;;;;;;;3.33;1.63;;;19.40;61.80;;;;;;5007147;28;20534;-59
2021/08/23 11:55:24;;;;;;;2.10;1.73;;;19.20;63.10;;;;;;5007010;28;20603;-59
2021/08/23 11:58:08;;;;;;;5.17;2.23;;;19.00;65.70;;;;;;4996814;28;20467;-58
2021/08/23 12:00:35;;;;;;;6.10;2.10;;;18.90;69.30;;;;;;4990180;28;20395;-59
2021/08/23 12:03:21;;;;;;;2.17;1.87;;;18.90;73.30;;;;;;5008623;28;20843;-59
2021/08/23 12:05:49;;;;;;;3.80;2.10;;;18.90;74.60;;;;;;5007359;28;20453;-60
2021/08/23 12:08:24;;;;;;;3.80;2.30;;;18.90;75.40;;;;;;4991611;28;20456;-59
2021/08/23 12:10:58;;;;;;;4.90;2.20;;;18.90;76.20;;;;;;4989016;28;20508;-59
2021/08/23 12:13:39;;;;;;;3.53;2.40;;;18.90;74.50;;;;;;4972083;28;20526;-59
2021/08/23 12:16:08;;;;;;;3.73;1.93;;;18.90;75.60;;;;;;4989349;28;20424;-59
2021/08/23 12:18:39;;;;;;;2.70;2.00;;;18.90;76.00;;;;;;5008114;28;20509;-59
2021/08/23 12:21:19;;;;;;;2.50;1.90;;;19.00;77.50;;;;;;5008687;28;20439;-59
2021/08/23 12:23:58;;;;;;;2.47;2.07;;;19.20;77.10;;;;;;5012259;28;20514;-58
2021/08/23 12:26:24;;;;;;;2.33;1.80;;;19.50;76.70;;;;;;5025229;28;20436;-60
2021/08/23 12:28:53;;;;;;;2.47;2.10;;;20.00;71.70;;;;;;5014038;28;20819;-58
2021/08/23 12:31:19;;;;;;;3.77;2.07;;;20.60;69.80;;;;;;5010975;28;20704;-59
2021/08/23 12:33:44;;;;;;;2.30;1.97;;;21.30;71.00;;;;;;4994177;28;20458;-60
2021/08/23 12:36:10;;;;;;;1.80;1.70;;;21.90;63.00;;;;;;5010943;28;20172;-60
2021/08/23 12:38:37;;;;;;;2.67;1.90;;;22.40;61.90;;;;;;4992285;28;20192;-58
2021/08/23 12:41:02;;;;;;;3.23;1.70;;;22.90;61.00;;;;;;5011119;28;20419;-59
2021/08/23 12:43:28;;;;;;;3.73;2.00;;;23.40;58.90;;;;;;5011899;28;20443;-60
2021/08/23 12:45:54;;;;;;;4.00;2.20;;;23.80;56.70;;;;;;5014755;28;20183;-60
2021/08/23 12:48:20;;;;;;;3.50;1.67;;;24.20;56.20;;;;;;5011302;28;20192;-60
2021/08/23 12:50:45;;;;;;;4.00;2.00;;;24.40;55.20;;;;;;4992199;28;20165;-59
2021/08/23 12:53:11;;;;;;;3.17;1.90;;;24.50;54.10;;;;;;4993803;28;20545;-59
2021/08/23 12:55:37;;;;;;;2.00;1.80;;;24.10;53.70;;;;;;4995259;28;20843;-60
2021/08/23 12:58:02;;;;;;;2.60;1.80;;;23.70;52.80;;;;;;5011814;28;20287;-61